sensor_id;sensor_type;location;lat;lon;timestamp;temperature;humidity
39493;DHT22;25176;51.060;3.720;2024-03-29T00:00:33;11.20;85.40
39493;DHT22;25176;51.060;3.720;2024-03-29T00:02:59;11.20;84.80
39493;DHT22;25176;51.060;3.720;2024-03-29T00:05:25;11.20;84.70
39493;DHT22;25176;51.060;3.720;2024-03-29T00:07:50;11.20;85.00
39493;DHT22;25176;51.060;3.720;2024-03-29T00:10:16;11.20;84.90
39493;DHT22;25176;51.060;3.720;2024-03-29T00:12:41;11.30;84.40
39493;DHT22;25176;51.060;3.720;2024-03-29T00:15:07;11.30;84.80
39493;DHT22;25176;51.060;3.720;2024-03-29T00:17:33;11.30;85.10
39493;DHT22;25176;51.060;3.720;2024-03-29T00:19:58;11.30;84.30
39493;DHT22;25176;51.060;3.720;2024-03-29T00:22:24;11.30;84.40
39493;DHT22;25176;51.060;3.720;2024-03-29T00:24:49;11.30;84.80
39493;DHT22;25176;51.060;3.720;2024-03-29T00:27:15;11.30;84.50
39493;DHT22;25176;51.060;3.720;2024-03-29T00:29:41;11.30;84.40
39493;DHT22;25176;51.060;3.720;2024-03-29T00:32:09;11.30;84.50
39493;DHT22;25176;51.060;3.720;2024-03-29T00:34:34;11.40;84.40
39493;DHT22;25176;51.060;3.720;2024-03-29T00:37:00;11.40;83.80
39493;DHT22;25176;51.060;3.720;2024-03-29T00:39:25;11.30;84.00
39493;DHT22;25176;51.060;3.720;2024-03-29T00:41:51;11.30;84.10
39493;DHT22;25176;51.060;3.720;2024-03-29T00:44:16;11.40;83.70
39493;DHT22;25176;51.060;3.720;2024-03-29T00:46:41;11.40;83.50
39493;DHT22;25176;51.060;3.720;2024-03-29T00:49:07;11.40;84.00
39493;DHT22;25176;51.060;3.720;2024-03-29T00:51:33;11.50;83.60
39493;DHT22;25176;51.060;3.720;2024-03-29T00:53:58;11.50;83.70
39493;DHT22;25176;51.060;3.720;2024-03-29T00:56:24;11.40;83.40
39493;DHT22;25176;51.060;3.720;2024-03-29T00:58:49;11.40;83.60
39493;DHT22;25176;51.060;3.720;2024-03-29T01:01:15;11.40;84.00
39493;DHT22;25176;51.060;3.720;2024-03-29T01:03:40;11.40;84.00
39493;DHT22;25176;51.060;3.720;2024-03-29T01:06:06;11.40;83.70
39493;DHT22;25176;51.060;3.720;2024-03-29T01:08:31;11.40;83.70
39493;DHT22;25176;51.060;3.720;2024-03-29T01:10:57;11.40;83.10
39493;DHT22;25176;51.060;3.720;2024-03-29T01:13:22;11.40;84.40
39493;DHT22;25176;51.060;3.720;2024-03-29T01:15:47;11.40;83.40
39493;DHT22;25176;51.060;3.720;2024-03-29T01:18:13;11.40;83.60
39493;DHT22;25176;51.060;3.720;2024-03-29T01:20:38;11.40;82.90
39493;DHT22;25176;51.060;3.720;2024-03-29T01:23:04;11.50;83.00
39493;DHT22;25176;51.060;3.720;2024-03-29T01:25:29;11.40;83.00
39493;DHT22;25176;51.060;3.720;2024-03-29T01:27:55;11.50;83.40
39493;DHT22;25176;51.060;3.720;2024-03-29T01:30:20;11.50;83.40
39493;DHT22;25176;51.060;3.720;2024-03-29T01:32:47;11.40;83.10
39493;DHT22;25176;51.060;3.720;2024-03-29T01:35:12;11.50;82.50
39493;DHT22;25176;51.060;3.720;2024-03-29T01:37:38;11.60;83.00
39493;DHT22;25176;51.060;3.720;2024-03-29T01:40:04;11.50;82.60
39493;DHT22;25176;51.060;3.720;2024-03-29T01:42:30;11.40;83.40
39493;DHT22;25176;51.060;3.720;2024-03-29T01:44:55;11.40;83.00
39493;DHT22;25176;51.060;3.720;2024-03-29T01:47:21;11.40;83.40
39493;DHT22;25176;51.060;3.720;2024-03-29T01:49:46;11.40;83.20
39493;DHT22;25176;51.060;3.720;2024-03-29T01:52:12;11.30;83.30
39493;DHT22;25176;51.060;3.720;2024-03-29T01:54:38;11.40;83.60
39493;DHT22;25176;51.060;3.720;2024-03-29T01:57:04;11.40;83.70
39493;DHT22;25176;51.060;3.720;2024-03-29T01:59:30;11.40;83.40
39493;DHT22;25176;51.060;3.720;2024-03-29T02:01:56;11.30;83.10
39493;DHT22;25176;51.060;3.720;2024-03-29T02:04:22;11.40;83.50
39493;DHT22;25176;51.060;3.720;2024-03-29T02:06:47;11.30;82.90
39493;DHT22;25176;51.060;3.720;2024-03-29T02:09:13;11.30;83.50
39493;DHT22;25176;51.060;3.720;2024-03-29T02:11:38;11.30;83.10
39493;DHT22;25176;51.060;3.720;2024-03-29T02:14:04;11.20;84.20
39493;DHT22;25176;51.060;3.720;2024-03-29T02:16:31;11.30;84.30
39493;DHT22;25176;51.060;3.720;2024-03-29T02:18:57;11.30;83.40
39493;DHT22;25176;51.060;3.720;2024-03-29T02:21:22;11.30;84.10
39493;DHT22;25176;51.060;3.720;2024-03-29T02:26:17;11.30;83.90
39493;DHT22;25176;51.060;3.720;2024-03-29T02:28:42;11.30;84.30
39493;DHT22;25176;51.060;3.720;2024-03-29T02:31:08;11.30;83.90
39493;DHT22;25176;51.060;3.720;2024-03-29T02:33:33;11.30;84.10
39493;DHT22;25176;51.060;3.720;2024-03-29T02:35:59;11.30;84.60
39493;DHT22;25176;51.060;3.720;2024-03-29T02:38:24;11.30;84.90
39493;DHT22;25176;51.060;3.720;2024-03-29T02:40:50;11.30;84.50
39493;DHT22;25176;51.060;3.720;2024-03-29T02:43:15;11.30;84.70
39493;DHT22;25176;51.060;3.720;2024-03-29T02:45:41;11.30;84.70
39493;DHT22;25176;51.060;3.720;2024-03-29T02:48:06;11.20;85.30
39493;DHT22;25176;51.060;3.720;2024-03-29T02:50:32;11.10;85.70
39493;DHT22;25176;51.060;3.720;2024-03-29T02:52:57;11.10;86.20
39493;DHT22;25176;51.060;3.720;2024-03-29T02:55:23;11.10;88.00
39493;DHT22;25176;51.060;3.720;2024-03-29T02:57:48;11.20;88.80
39493;DHT22;25176;51.060;3.720;2024-03-29T03:00:14;11.20;89.20
39493;DHT22;25176;51.060;3.720;2024-03-29T03:02:39;11.10;89.80
39493;DHT22;25176;51.060;3.720;2024-03-29T03:05:05;11.00;90.30
39493;DHT22;25176;51.060;3.720;2024-03-29T03:07:31;11.00;90.60
39493;DHT22;25176;51.060;3.720;2024-03-29T03:10:16;10.90;90.70
39493;DHT22;25176;51.060;3.720;2024-03-29T03:13:00;10.90;90.80
39493;DHT22;25176;51.060;3.720;2024-03-29T03:15:25;10.80;91.00
39493;DHT22;25176;51.060;3.720;2024-03-29T03:17:51;10.90;91.10
39493;DHT22;25176;51.060;3.720;2024-03-29T03:20:16;10.90;91.30
39493;DHT22;25176;51.060;3.720;2024-03-29T03:22:42;10.90;91.20
39493;DHT22;25176;51.060;3.720;2024-03-29T03:25:08;10.90;91.30
39493;DHT22;25176;51.060;3.720;2024-03-29T03:27:33;10.80;91.10
39493;DHT22;25176;51.060;3.720;2024-03-29T03:29:59;10.80;91.60
39493;DHT22;25176;51.060;3.720;2024-03-29T03:32:25;10.80;91.80
39493;DHT22;25176;51.060;3.720;2024-03-29T03:34:50;10.80;91.60
39493;DHT22;25176;51.060;3.720;2024-03-29T03:37:16;10.80;91.40
39493;DHT22;25176;51.060;3.720;2024-03-29T03:39:41;10.80;92.00
39493;DHT22;25176;51.060;3.720;2024-03-29T03:42:06;10.70;91.90
39493;DHT22;25176;51.060;3.720;2024-03-29T03:44:32;10.70;92.00
39493;DHT22;25176;51.060;3.720;2024-03-29T03:46:57;10.70;92.10
39493;DHT22;25176;51.060;3.720;2024-03-29T03:49:23;10.70;92.20
39493;DHT22;25176;51.060;3.720;2024-03-29T03:51:48;10.80;92.30
39493;DHT22;25176;51.060;3.720;2024-03-29T03:54:14;10.80;92.20
39493;DHT22;25176;51.060;3.720;2024-03-29T03:56:39;10.70;92.40
39493;DHT22;25176;51.060;3.720;2024-03-29T03:59:05;10.60;92.70
39493;DHT22;25176;51.060;3.720;2024-03-29T04:01:30;10.60;92.90
39493;DHT22;25176;51.060;3.720;2024-03-29T04:03:56;10.60;93.00
39493;DHT22;25176;51.060;3.720;2024-03-29T04:06:21;10.60;93.40
39493;DHT22;25176;51.060;3.720;2024-03-29T04:08:47;10.40;93.90
39493;DHT22;25176;51.060;3.720;2024-03-29T04:11:12;10.30;94.80
39493;DHT22;25176;51.060;3.720;2024-03-29T04:13:38;10.40;95.00
39493;DHT22;25176;51.060;3.720;2024-03-29T04:16:05;10.40;95.10
39493;DHT22;25176;51.060;3.720;2024-03-29T04:18:31;10.40;95.00
39493;DHT22;25176;51.060;3.720;2024-03-29T04:20:57;10.40;95.30
39493;DHT22;25176;51.060;3.720;2024-03-29T04:23:23;10.20;95.20
39493;DHT22;25176;51.060;3.720;2024-03-29T04:25:58;10.20;95.80
39493;DHT22;25176;51.060;3.720;2024-03-29T04:28:24;10.20;95.50
39493;DHT22;25176;51.060;3.720;2024-03-29T04:30:59;10.00;95.60
39493;DHT22;25176;51.060;3.720;2024-03-29T04:33:25;10.00;95.90
39493;DHT22;25176;51.060;3.720;2024-03-29T04:38:19;9.80;96.40
39493;DHT22;25176;51.060;3.720;2024-03-29T04:40:44;9.70;96.60
39493;DHT22;25176;51.060;3.720;2024-03-29T04:43:10;9.80;96.90
39493;DHT22;25176;51.060;3.720;2024-03-29T04:45:35;9.70;96.80
39493;DHT22;25176;51.060;3.720;2024-03-29T04:48:01;9.60;96.90
39493;DHT22;25176;51.060;3.720;2024-03-29T04:50:26;9.50;97.10
39493;DHT22;25176;51.060;3.720;2024-03-29T04:52:52;9.50;97.40
39493;DHT22;25176;51.060;3.720;2024-03-29T04:55:17;9.60;97.50
39493;DHT22;25176;51.060;3.720;2024-03-29T04:57:43;9.60;97.30
39493;DHT22;25176;51.060;3.720;2024-03-29T05:00:08;9.50;97.60
39493;DHT22;25176;51.060;3.720;2024-03-29T05:02:34;9.60;97.60
39493;DHT22;25176;51.060;3.720;2024-03-29T05:05:00;9.70;97.70
39493;DHT22;25176;51.060;3.720;2024-03-29T05:07:25;9.60;97.50
39493;DHT22;25176;51.060;3.720;2024-03-29T05:09:50;9.70;97.60
39493;DHT22;25176;51.060;3.720;2024-03-29T05:12:16;9.60;97.50
39493;DHT22;25176;51.060;3.720;2024-03-29T05:14:41;9.60;97.90
39493;DHT22;25176;51.060;3.720;2024-03-29T05:17:07;9.70;98.10
39493;DHT22;25176;51.060;3.720;2024-03-29T05:19:33;9.80;98.00
39493;DHT22;25176;51.060;3.720;2024-03-29T05:21:59;9.80;97.40
39493;DHT22;25176;51.060;3.720;2024-03-29T05:24:26;10.00;97.40
39493;DHT22;25176;51.060;3.720;2024-03-29T05:26:51;10.00;97.40
39493;DHT22;25176;51.060;3.720;2024-03-29T05:29:17;10.10;97.10
39493;DHT22;25176;51.060;3.720;2024-03-29T05:31:42;10.10;96.80
39493;DHT22;25176;51.060;3.720;2024-03-29T05:34:08;10.00;97.10
39493;DHT22;25176;51.060;3.720;2024-03-29T05:36:33;10.20;97.10
39493;DHT22;25176;51.060;3.720;2024-03-29T05:38:59;10.10;96.80
39493;DHT22;25176;51.060;3.720;2024-03-29T05:41:24;10.00;97.40
39493;DHT22;25176;51.060;3.720;2024-03-29T05:43:50;10.00;97.20
39493;DHT22;25176;51.060;3.720;2024-03-29T05:46:16;10.10;96.90
39493;DHT22;25176;51.060;3.720;2024-03-29T05:48:42;10.10;96.90
39493;DHT22;25176;51.060;3.720;2024-03-29T05:51:08;10.10;97.00
39493;DHT22;25176;51.060;3.720;2024-03-29T05:53:33;10.10;96.80
39493;DHT22;25176;51.060;3.720;2024-03-29T05:55:59;10.10;97.50
39493;DHT22;25176;51.060;3.720;2024-03-29T05:58:24;10.20;97.40
39493;DHT22;25176;51.060;3.720;2024-03-29T06:00:50;10.30;97.40
39493;DHT22;25176;51.060;3.720;2024-03-29T06:03:15;10.40;97.30
39493;DHT22;25176;51.060;3.720;2024-03-29T06:05:41;10.30;97.30
39493;DHT22;25176;51.060;3.720;2024-03-29T06:08:07;10.10;98.00
39493;DHT22;25176;51.060;3.720;2024-03-29T06:10:32;10.10;98.10
39493;DHT22;25176;51.060;3.720;2024-03-29T06:12:58;10.20;98.50
39493;DHT22;25176;51.060;3.720;2024-03-29T06:15:33;10.20;98.20
39493;DHT22;25176;51.060;3.720;2024-03-29T06:18:17;10.30;98.10
39493;DHT22;25176;51.060;3.720;2024-03-29T06:20:44;10.40;98.10
39493;DHT22;25176;51.060;3.720;2024-03-29T06:23:10;10.50;97.80
39493;DHT22;25176;51.060;3.720;2024-03-29T06:25:35;10.60;97.90
39493;DHT22;25176;51.060;3.720;2024-03-29T06:28:01;10.60;98.00
39493;DHT22;25176;51.060;3.720;2024-03-29T06:30:26;10.60;97.80
39493;DHT22;25176;51.060;3.720;2024-03-29T06:32:52;10.60;97.90
39493;DHT22;25176;51.060;3.720;2024-03-29T06:35:18;10.60;97.80
39493;DHT22;25176;51.060;3.720;2024-03-29T06:37:45;10.70;97.80
39493;DHT22;25176;51.060;3.720;2024-03-29T06:40:11;10.80;97.50
39493;DHT22;25176;51.060;3.720;2024-03-29T06:42:38;10.80;97.60
39493;DHT22;25176;51.060;3.720;2024-03-29T06:45:04;10.80;97.00
39493;DHT22;25176;51.060;3.720;2024-03-29T06:47:31;10.80;97.30
39493;DHT22;25176;51.060;3.720;2024-03-29T06:49:57;10.90;97.30
39493;DHT22;25176;51.060;3.720;2024-03-29T06:52:22;11.00;97.20
39493;DHT22;25176;51.060;3.720;2024-03-29T06:54:48;11.00;96.80
39493;DHT22;25176;51.060;3.720;2024-03-29T06:57:14;10.80;97.00
39493;DHT22;25176;51.060;3.720;2024-03-29T06:59:42;10.70;97.40
39493;DHT22;25176;51.060;3.720;2024-03-29T07:02:08;10.80;97.40
39493;DHT22;25176;51.060;3.720;2024-03-29T07:04:35;10.90;97.20
39493;DHT22;25176;51.060;3.720;2024-03-29T07:07:01;11.00;97.20
39493;DHT22;25176;51.060;3.720;2024-03-29T07:09:26;11.00;97.10
39493;DHT22;25176;51.060;3.720;2024-03-29T07:11:52;11.00;97.10
39493;DHT22;25176;51.060;3.720;2024-03-29T07:14:20;11.10;96.90
39493;DHT22;25176;51.060;3.720;2024-03-29T07:16:45;11.00;97.10
39493;DHT22;25176;51.060;3.720;2024-03-29T07:19:12;11.10;97.10
39493;DHT22;25176;51.060;3.720;2024-03-29T07:21:39;11.20;96.90
39493;DHT22;25176;51.060;3.720;2024-03-29T07:24:05;11.30;96.70
39493;DHT22;25176;51.060;3.720;2024-03-29T07:26:31;11.40;96.50
39493;DHT22;25176;51.060;3.720;2024-03-29T07:28:57;11.40;96.50
39493;DHT22;25176;51.060;3.720;2024-03-29T07:31:23;11.50;96.50
39493;DHT22;25176;51.060;3.720;2024-03-29T07:33:49;11.60;96.00
39493;DHT22;25176;51.060;3.720;2024-03-29T07:36:14;11.50;96.10
39493;DHT22;25176;51.060;3.720;2024-03-29T07:38:42;11.70;96.30
39493;DHT22;25176;51.060;3.720;2024-03-29T07:41:07;11.80;95.80
39493;DHT22;25176;51.060;3.720;2024-03-29T07:43:41;11.60;96.00
39493;DHT22;25176;51.060;3.720;2024-03-29T07:46:16;11.50;96.20
39493;DHT22;25176;51.060;3.720;2024-03-29T07:48:41;11.60;96.30
39493;DHT22;25176;51.060;3.720;2024-03-29T07:51:07;11.80;95.70
39493;DHT22;25176;51.060;3.720;2024-03-29T07:53:32;11.80;95.50
39493;DHT22;25176;51.060;3.720;2024-03-29T07:55:57;12.00;95.70
39493;DHT22;25176;51.060;3.720;2024-03-29T07:58:23;12.10;95.00
39493;DHT22;25176;51.060;3.720;2024-03-29T08:00:51;12.10;94.90
39493;DHT22;25176;51.060;3.720;2024-03-29T08:03:17;12.20;94.90
39493;DHT22;25176;51.060;3.720;2024-03-29T08:05:42;12.30;94.50
39493;DHT22;25176;51.060;3.720;2024-03-29T08:08:08;12.00;94.70
39493;DHT22;25176;51.060;3.720;2024-03-29T08:10:33;12.00;95.00
39493;DHT22;25176;51.060;3.720;2024-03-29T08:12:59;12.10;95.30
39493;DHT22;25176;51.060;3.720;2024-03-29T08:15:26;12.20;94.90
39493;DHT22;25176;51.060;3.720;2024-03-29T08:17:52;12.10;94.70
39493;DHT22;25176;51.060;3.720;2024-03-29T08:20:18;12.30;94.60
39493;DHT22;25176;51.060;3.720;2024-03-29T08:22:44;12.30;94.70
39493;DHT22;25176;51.060;3.720;2024-03-29T08:25:09;12.50;94.60
39493;DHT22;25176;51.060;3.720;2024-03-29T08:27:35;12.50;94.60
39493;DHT22;25176;51.060;3.720;2024-03-29T08:30:00;12.60;94.60
39493;DHT22;25176;51.060;3.720;2024-03-29T08:32:26;12.70;94.40
39493;DHT22;25176;51.060;3.720;2024-03-29T08:34:51;12.80;93.80
39493;DHT22;25176;51.060;3.720;2024-03-29T08:37:17;12.80;94.30
39493;DHT22;25176;51.060;3.720;2024-03-29T08:39:43;12.50;94.10
39493;DHT22;25176;51.060;3.720;2024-03-29T08:42:09;12.60;94.70
39493;DHT22;25176;51.060;3.720;2024-03-29T08:44:37;12.80;94.60
39493;DHT22;25176;51.060;3.720;2024-03-29T08:47:02;12.80;94.20
39493;DHT22;25176;51.060;3.720;2024-03-29T08:49:28;12.80;94.20
39493;DHT22;25176;51.060;3.720;2024-03-29T08:51:54;12.70;94.20
39493;DHT22;25176;51.060;3.720;2024-03-29T08:54:20;12.60;94.50
39493;DHT22;25176;51.060;3.720;2024-03-29T08:56:45;12.40;94.70
39493;DHT22;25176;51.060;3.720;2024-03-29T08:59:11;12.40;94.90
39493;DHT22;25176;51.060;3.720;2024-03-29T09:01:44;12.50;95.20
39493;DHT22;25176;51.060;3.720;2024-03-29T09:04:10;12.60;94.90
39493;DHT22;25176;51.060;3.720;2024-03-29T09:06:37;12.60;94.40
39493;DHT22;25176;51.060;3.720;2024-03-29T09:09:04;12.30;94.70
39493;DHT22;25176;51.060;3.720;2024-03-29T09:11:32;12.40;95.10
39493;DHT22;25176;51.060;3.720;2024-03-29T09:13:58;12.40;95.10
39493;DHT22;25176;51.060;3.720;2024-03-29T09:16:27;12.60;94.80
39493;DHT22;25176;51.060;3.720;2024-03-29T09:18:57;12.80;94.30
39493;DHT22;25176;51.060;3.720;2024-03-29T09:21:22;13.00;94.30
39493;DHT22;25176;51.060;3.720;2024-03-29T09:23:48;13.40;93.70
39493;DHT22;25176;51.060;3.720;2024-03-29T09:26:16;13.60;93.50
39493;DHT22;25176;51.060;3.720;2024-03-29T09:28:42;13.30;93.00
39493;DHT22;25176;51.060;3.720;2024-03-29T09:31:07;13.90;93.70
39493;DHT22;25176;51.060;3.720;2024-03-29T09:33:33;14.50;92.00
39493;DHT22;25176;51.060;3.720;2024-03-29T09:35:58;15.20;91.50
39493;DHT22;25176;51.060;3.720;2024-03-29T09:38:27;16.10;90.20
39493;DHT22;25176;51.060;3.720;2024-03-29T09:41:03;16.40;87.90
39493;DHT22;25176;51.060;3.720;2024-03-29T09:43:30;17.60;86.10
39493;DHT22;25176;51.060;3.720;2024-03-29T09:45:56;18.10;83.80
39493;DHT22;25176;51.060;3.720;2024-03-29T09:48:21;17.40;83.80
39493;DHT22;25176;51.060;3.720;2024-03-29T09:50:48;17.00;87.10
39493;DHT22;25176;51.060;3.720;2024-03-29T09:53:14;17.40;83.70
39493;DHT22;25176;51.060;3.720;2024-03-29T09:55:40;17.90;82.70
39493;DHT22;25176;51.060;3.720;2024-03-29T09:58:06;17.60;82.80
39493;DHT22;25176;51.060;3.720;2024-03-29T10:00:32;17.80;83.90
39493;DHT22;25176;51.060;3.720;2024-03-29T10:02:58;18.50;81.70
39493;DHT22;25176;51.060;3.720;2024-03-29T10:05:24;18.90;79.90
39493;DHT22;25176;51.060;3.720;2024-03-29T10:07:50;19.90;78.00
39493;DHT22;25176;51.060;3.720;2024-03-29T10:10:18;19.70;76.80
39493;DHT22;25176;51.060;3.720;2024-03-29T10:12:44;19.40;77.40
39493;DHT22;25176;51.060;3.720;2024-03-29T10:15:09;18.30;80.10
39493;DHT22;25176;51.060;3.720;2024-03-29T10:17:47;18.70;79.60
39493;DHT22;25176;51.060;3.720;2024-03-29T10:20:17;19.10;79.10
39493;DHT22;25176;51.060;3.720;2024-03-29T10:22:43;21.20;74.60
39493;DHT22;25176;51.060;3.720;2024-03-29T10:25:09;20.50;74.30
39493;DHT22;25176;51.060;3.720;2024-03-29T10:27:35;20.50;74.10
39493;DHT22;25176;51.060;3.720;2024-03-29T10:30:00;20.20;74.20
39493;DHT22;25176;51.060;3.720;2024-03-29T10:32:26;19.20;76.20
39493;DHT22;25176;51.060;3.720;2024-03-29T10:34:52;18.70;78.30
39493;DHT22;25176;51.060;3.720;2024-03-29T10:37:17;18.70;77.20
39493;DHT22;25176;51.060;3.720;2024-03-29T10:39:50;18.10;78.70
39493;DHT22;25176;51.060;3.720;2024-03-29T10:42:15;18.20;78.80
39493;DHT22;25176;51.060;3.720;2024-03-29T10:44:41;17.70;79.90
39493;DHT22;25176;51.060;3.720;2024-03-29T10:47:06;17.70;79.50
39493;DHT22;25176;51.060;3.720;2024-03-29T10:49:33;17.20;80.60
39493;DHT22;25176;51.060;3.720;2024-03-29T10:51:59;17.20;81.20
39493;DHT22;25176;51.060;3.720;2024-03-29T10:54:25;17.20;81.10
39493;DHT22;25176;51.060;3.720;2024-03-29T10:57:13;17.10;81.20
39493;DHT22;25176;51.060;3.720;2024-03-29T10:59:43;16.80;80.70
39493;DHT22;25176;51.060;3.720;2024-03-29T11:02:13;16.70;82.00
39493;DHT22;25176;51.060;3.720;2024-03-29T11:04:41;16.90;81.50
39493;DHT22;25176;51.060;3.720;2024-03-29T11:07:12;17.10;81.90
39493;DHT22;25176;51.060;3.720;2024-03-29T11:09:38;17.00;81.70
39493;DHT22;25176;51.060;3.720;2024-03-29T11:12:05;17.30;80.10
39493;DHT22;25176;51.060;3.720;2024-03-29T11:14:33;16.90;80.50
39493;DHT22;25176;51.060;3.720;2024-03-29T11:17:01;16.90;81.00
39493;DHT22;25176;51.060;3.720;2024-03-29T11:19:27;17.10;80.80
39493;DHT22;25176;51.060;3.720;2024-03-29T11:21:53;17.50;79.20
39493;DHT22;25176;51.060;3.720;2024-03-29T11:24:18;17.20;79.90
39493;DHT22;25176;51.060;3.720;2024-03-29T11:26:47;16.80;81.20
39493;DHT22;25176;51.060;3.720;2024-03-29T11:29:23;16.80;82.00
39493;DHT22;25176;51.060;3.720;2024-03-29T11:31:56;16.70;82.40
39493;DHT22;25176;51.060;3.720;2024-03-29T11:34:22;16.50;81.90
39493;DHT22;25176;51.060;3.720;2024-03-29T11:36:49;16.80;81.00
39493;DHT22;25176;51.060;3.720;2024-03-29T11:39:21;16.60;81.20
39493;DHT22;25176;51.060;3.720;2024-03-29T11:41:47;16.70;81.90
39493;DHT22;25176;51.060;3.720;2024-03-29T11:44:13;16.70;82.50
39493;DHT22;25176;51.060;3.720;2024-03-29T11:46:39;17.00;81.70
39493;DHT22;25176;51.060;3.720;2024-03-29T11:49:05;17.20;81.00
39493;DHT22;25176;51.060;3.720;2024-03-29T11:51:31;17.30;79.90
39493;DHT22;25176;51.060;3.720;2024-03-29T11:53:57;17.20;79.40
39493;DHT22;25176;51.060;3.720;2024-03-29T11:56:23;17.20;79.50
39493;DHT22;25176;51.060;3.720;2024-03-29T11:58:48;17.00;79.80
39493;DHT22;25176;51.060;3.720;2024-03-29T12:01:14;16.80;81.20
39493;DHT22;25176;51.060;3.720;2024-03-29T12:03:41;16.80;81.10
39493;DHT22;25176;51.060;3.720;2024-03-29T12:06:07;17.00;79.50
39493;DHT22;25176;51.060;3.720;2024-03-29T12:08:42;17.10;78.40
39493;DHT22;25176;51.060;3.720;2024-03-29T12:11:08;16.90;79.20
39493;DHT22;25176;51.060;3.720;2024-03-29T12:13:34;17.10;79.70
39493;DHT22;25176;51.060;3.720;2024-03-29T12:16:00;17.00;80.60
39493;DHT22;25176;51.060;3.720;2024-03-29T12:18:26;17.00;78.40
39493;DHT22;25176;51.060;3.720;2024-03-29T12:20:53;16.90;78.50
39493;DHT22;25176;51.060;3.720;2024-03-29T12:23:20;17.00;79.30
39493;DHT22;25176;51.060;3.720;2024-03-29T12:25:46;16.90;79.00
39493;DHT22;25176;51.060;3.720;2024-03-29T12:28:12;16.90;79.00
39493;DHT22;25176;51.060;3.720;2024-03-29T12:30:42;17.10;78.00
39493;DHT22;25176;51.060;3.720;2024-03-29T12:33:08;17.10;78.90
39493;DHT22;25176;51.060;3.720;2024-03-29T12:35:35;17.20;78.60
39493;DHT22;25176;51.060;3.720;2024-03-29T12:38:01;17.40;78.40
39493;DHT22;25176;51.060;3.720;2024-03-29T12:40:27;17.30;77.30
39493;DHT22;25176;51.060;3.720;2024-03-29T12:43:02;17.00;78.30
39493;DHT22;25176;51.060;3.720;2024-03-29T12:45:28;17.10;78.50
39493;DHT22;25176;51.060;3.720;2024-03-29T12:47:56;17.20;79.00
39493;DHT22;25176;51.060;3.720;2024-03-29T12:50:31;17.50;76.80
39493;DHT22;25176;51.060;3.720;2024-03-29T12:52:58;17.10;76.70
39493;DHT22;25176;51.060;3.720;2024-03-29T12:55:25;17.10;76.30
39493;DHT22;25176;51.060;3.720;2024-03-29T12:57:53;17.10;77.40
39493;DHT22;25176;51.060;3.720;2024-03-29T13:00:20;17.30;78.30
39493;DHT22;25176;51.060;3.720;2024-03-29T13:02:45;17.30;77.50
39493;DHT22;25176;51.060;3.720;2024-03-29T13:05:11;17.60;77.40
39493;DHT22;25176;51.060;3.720;2024-03-29T13:07:37;17.60;76.40
39493;DHT22;25176;51.060;3.720;2024-03-29T13:10:03;17.80;75.50
39493;DHT22;25176;51.060;3.720;2024-03-29T13:12:36;17.80;74.30
39493;DHT22;25176;51.060;3.720;2024-03-29T13:15:02;17.50;76.30
39493;DHT22;25176;51.060;3.720;2024-03-29T13:17:29;17.20;77.70
39493;DHT22;25176;51.060;3.720;2024-03-29T13:19:55;17.20;78.10
39493;DHT22;25176;51.060;3.720;2024-03-29T13:22:20;17.10;77.90
39493;DHT22;25176;51.060;3.720;2024-03-29T13:24:46;17.20;77.60
39493;DHT22;25176;51.060;3.720;2024-03-29T13:27:12;17.30;77.50
39493;DHT22;25176;51.060;3.720;2024-03-29T13:29:38;17.10;78.10
39493;DHT22;25176;51.060;3.720;2024-03-29T13:32:04;17.10;79.30
39493;DHT22;25176;51.060;3.720;2024-03-29T13:34:30;17.30;78.40
39493;DHT22;25176;51.060;3.720;2024-03-29T13:36:55;17.30;78.30
39493;DHT22;25176;51.060;3.720;2024-03-29T13:39:21;17.10;78.80
39493;DHT22;25176;51.060;3.720;2024-03-29T13:41:48;17.20;79.00
39493;DHT22;25176;51.060;3.720;2024-03-29T13:44:15;17.10;79.10
39493;DHT22;25176;51.060;3.720;2024-03-29T13:46:43;17.10;78.80
39493;DHT22;25176;51.060;3.720;2024-03-29T13:49:09;17.10;79.40
39493;DHT22;25176;51.060;3.720;2024-03-29T13:51:34;17.00;80.10
39493;DHT22;25176;51.060;3.720;2024-03-29T13:54:00;17.00;80.20
39493;DHT22;25176;51.060;3.720;2024-03-29T13:56:25;16.80;80.30
39493;DHT22;25176;51.060;3.720;2024-03-29T13:58:51;16.80;80.40
39493;DHT22;25176;51.060;3.720;2024-03-29T14:01:17;16.90;80.80
39493;DHT22;25176;51.060;3.720;2024-03-29T14:03:43;17.00;80.20
39493;DHT22;25176;51.060;3.720;2024-03-29T14:06:09;16.80;79.70
39493;DHT22;25176;51.060;3.720;2024-03-29T14:08:35;16.70;80.90
39493;DHT22;25176;51.060;3.720;2024-03-29T14:11:01;16.80;80.10
39493;DHT22;25176;51.060;3.720;2024-03-29T14:13:29;16.60;81.00
39493;DHT22;25176;51.060;3.720;2024-03-29T14:15:54;16.60;81.40
39493;DHT22;25176;51.060;3.720;2024-03-29T14:18:20;16.70;81.00
39493;DHT22;25176;51.060;3.720;2024-03-29T14:20:47;16.90;80.50
39493;DHT22;25176;51.060;3.720;2024-03-29T14:23:13;16.80;80.90
39493;DHT22;25176;51.060;3.720;2024-03-29T14:25:41;16.70;81.40
39493;DHT22;25176;51.060;3.720;2024-03-29T14:28:07;16.60;80.10
39493;DHT22;25176;51.060;3.720;2024-03-29T14:30:33;16.40;80.50
39493;DHT22;25176;51.060;3.720;2024-03-29T14:32:59;16.20;81.00
39493;DHT22;25176;51.060;3.720;2024-03-29T14:35:32;16.50;81.50
39493;DHT22;25176;51.060;3.720;2024-03-29T14:37:58;16.40;79.50
39493;DHT22;25176;51.060;3.720;2024-03-29T14:40:24;16.50;79.00
39493;DHT22;25176;51.060;3.720;2024-03-29T14:42:52;16.40;79.20
39493;DHT22;25176;51.060;3.720;2024-03-29T14:45:19;16.40;80.00
39493;DHT22;25176;51.060;3.720;2024-03-29T14:47:44;16.40;79.30
39493;DHT22;25176;51.060;3.720;2024-03-29T14:50:10;16.30;79.20
39493;DHT22;25176;51.060;3.720;2024-03-29T14:52:36;16.20;79.40
39493;DHT22;25176;51.060;3.720;2024-03-29T14:55:03;16.20;80.40
39493;DHT22;25176;51.060;3.720;2024-03-29T14:57:29;16.40;79.90
39493;DHT22;25176;51.060;3.720;2024-03-29T14:59:55;16.40;80.10
39493;DHT22;25176;51.060;3.720;2024-03-29T15:02:20;16.30;80.10
39493;DHT22;25176;51.060;3.720;2024-03-29T15:04:46;16.30;79.60
39493;DHT22;25176;51.060;3.720;2024-03-29T15:07:11;16.30;79.50
39493;DHT22;25176;51.060;3.720;2024-03-29T15:09:37;16.20;79.60
39493;DHT22;25176;51.060;3.720;2024-03-29T15:12:02;16.20;79.30
39493;DHT22;25176;51.060;3.720;2024-03-29T15:14:29;16.10;79.90
39493;DHT22;25176;51.060;3.720;2024-03-29T15:16:54;16.00;80.10
39493;DHT22;25176;51.060;3.720;2024-03-29T15:19:21;16.00;80.40
39493;DHT22;25176;51.060;3.720;2024-03-29T15:21:46;16.10;80.50
39493;DHT22;25176;51.060;3.720;2024-03-29T15:24:12;16.10;80.60
39493;DHT22;25176;51.060;3.720;2024-03-29T15:26:38;16.40;80.30
39493;DHT22;25176;51.060;3.720;2024-03-29T15:29:04;16.40;80.50
39493;DHT22;25176;51.060;3.720;2024-03-29T15:31:40;16.40;80.00